createdAt,value
2022-09-12T00:00:52.890Z,101280.00
2022-09-12T00:03:19.958Z,101278.44
2022-09-12T00:05:47.976Z,101281.13
2022-09-12T00:08:15.280Z,101281.25
2022-09-12T00:10:44.127Z,101278.81
2022-09-12T00:13:11.794Z,101279.81
2022-09-12T00:15:40.217Z,101277.94
2022-09-12T00:18:09.459Z,101277.09
2022-09-12T00:20:36.347Z,101278.91
2022-09-12T00:23:03.384Z,101270.34
2022-09-12T00:25:31.259Z,101263.94
2022-09-12T00:27:58.259Z,101263.31
2022-09-12T00:30:25.306Z,101262.72
2022-09-12T00:32:54.644Z,101263.84
2022-09-12T00:35:21.569Z,101263.84
2022-09-12T00:37:48.918Z,101262.25
2022-09-12T00:40:16.104Z,101261.53
2022-09-12T00:42:43.152Z,101258.09
2022-09-12T00:45:24.141Z,101261.03
2022-09-12T00:47:51.111Z,101251.47
2022-09-12T00:50:18.675Z,101258.00
2022-09-12T00:53:14.359Z,101248.25
2022-09-12T00:55:49.772Z,101253.06
2022-09-12T00:58:33.231Z,101253.22
2022-09-12T01:01:00.391Z,101244.72
2022-09-12T01:03:27.544Z,101243.28
2022-09-12T01:06:13.901Z,101244.28
2022-09-12T01:08:43.863Z,101249.81
2022-09-12T01:11:11.883Z,101242.31
2022-09-12T01:13:38.906Z,101240.84
2022-09-12T01:16:07.349Z,101251.81
2022-09-12T01:19:16.948Z,101251.94
2022-09-12T01:22:28.926Z,101247.97
2022-09-12T01:25:34.104Z,101253.66
2022-09-12T01:28:24.003Z,101251.09
2022-09-12T01:31:43.064Z,101246.16
2022-09-12T01:34:33.866Z,101241.50
2022-09-12T01:37:03.439Z,101239.88
2022-09-12T01:39:40.587Z,101241.88
2022-09-12T01:42:48.877Z,101241.50
2022-09-12T01:45:34.827Z,101234.47
2022-09-12T01:48:13.124Z,101234.13
2022-09-12T01:51:11.775Z,101235.72
2022-09-12T01:53:45.122Z,101232.41
2022-09-12T01:56:22.017Z,101230.06
2022-09-12T01:59:06.677Z,101226.00
2022-09-12T02:01:56.867Z,101226.00
2022-09-12T02:04:34.136Z,101219.84
2022-09-12T02:07:14.930Z,101225.25
2022-09-12T02:10:01.488Z,101213.00
2022-09-12T02:12:40.634Z,101223.81
2022-09-12T02:15:10.243Z,101216.69
2022-09-12T02:17:43.053Z,101213.34
2022-09-12T02:20:37.504Z,101212.63
2022-09-12T02:23:13.891Z,101213.88
2022-09-12T02:25:45.243Z,101211.16
2022-09-12T02:28:30.241Z,101215.81
2022-09-12T02:31:09.419Z,101216.66
2022-09-12T02:33:53.121Z,101216.19
2022-09-12T02:36:40.873Z,101213.72
2022-09-12T02:39:07.845Z,101212.88
2022-09-12T02:41:34.805Z,101209.28
2022-09-12T02:44:04.027Z,101217.66
2022-09-12T02:46:47.682Z,101210.28
2022-09-12T02:49:16.105Z,101212.25
2022-09-12T02:51:43.458Z,101207.69
2022-09-12T02:54:11.750Z,101204.63
2022-09-12T02:56:43.583Z,101209.41
2022-09-12T02:59:15.955Z,101205.38
2022-09-12T03:02:13.590Z,101207.34
2022-09-12T03:05:11.042Z,101198.59
2022-09-12T03:08:06.337Z,101207.69
2022-09-12T03:11:08.952Z,101197.00
2022-09-12T03:14:41.802Z,101200.69
2022-09-12T03:17:18.458Z,101207.81
2022-09-12T03:20:13.911Z,101201.28
2022-09-12T03:23:03.711Z,101199.06
2022-09-12T03:25:42.108Z,101200.28
2022-09-12T03:28:14.650Z,101197.09
2022-09-12T03:30:47.823Z,101207.16
2022-09-12T03:33:18.282Z,101195.50
2022-09-12T03:35:46.639Z,101192.03
2022-09-12T03:38:13.834Z,101188.50
2022-09-12T03:40:41.544Z,101198.44
2022-09-12T03:43:09.268Z,101195.09
2022-09-12T03:45:37.699Z,101194.63
2022-09-12T03:48:06.169Z,101202.81
2022-09-12T03:50:33.848Z,101194.84
2022-09-12T03:53:01.463Z,101200.38
2022-09-12T03:55:28.424Z,101193.25
2022-09-12T03:57:55.911Z,101187.41
2022-09-12T04:00:23.208Z,101192.06
2022-09-12T04:02:57.135Z,101192.31
2022-09-12T04:05:25.869Z,101186.66
2022-09-12T04:07:52.801Z,101195.72
2022-09-12T04:10:19.817Z,101193.38
2022-09-12T04:12:46.947Z,101189.06
2022-09-12T04:15:14.544Z,101194.56
2022-09-12T04:17:41.417Z,101193.72
2022-09-12T04:20:09.195Z,101201.69
2022-09-12T04:22:36.188Z,101191.16
2022-09-12T04:25:03.456Z,101200.31
2022-09-12T04:27:30.951Z,101192.47
2022-09-12T04:29:58.463Z,101192.59
2022-09-12T04:32:25.505Z,101197.00
2022-09-12T04:34:52.642Z,101194.53
2022-09-12T04:37:19.648Z,101200.91
2022-09-12T04:39:48.489Z,101208.13
2022-09-12T04:42:16.447Z,101193.28
2022-09-12T04:44:43.847Z,101195.03
2022-09-12T04:47:10.993Z,101197.81
2022-09-12T04:49:38.149Z,101188.13
2022-09-12T04:52:05.346Z,101188.34
2022-09-12T04:54:32.995Z,101187.72
2022-09-12T04:56:59.958Z,101190.41
2022-09-12T04:59:27.673Z,101193.84
2022-09-12T05:01:54.693Z,101189.56
2022-09-12T05:04:21.683Z,101191.91
2022-09-12T05:06:48.680Z,101190.19
2022-09-12T05:09:16.513Z,101191.03
2022-09-12T05:12:04.268Z,101188.97
2022-09-12T05:14:32.875Z,101187.38
2022-09-12T05:17:01.557Z,101190.69
2022-09-12T05:19:30.476Z,101195.03
2022-09-12T05:21:57.649Z,101189.50
2022-09-12T05:24:26.222Z,101189.03
2022-09-12T05:26:53.378Z,101181.53
2022-09-12T05:29:20.375Z,101185.00
2022-09-12T05:31:50.148Z,101182.94
2022-09-12T05:34:17.117Z,101184.41
2022-09-12T05:36:44.141Z,101187.41
2022-09-12T05:39:11.086Z,101174.16
2022-09-12T05:41:38.291Z,101182.44
2022-09-12T05:44:10.600Z,101184.28
2022-09-12T05:46:40.882Z,101180.50
2022-09-12T05:49:11.749Z,101182.50
2022-09-12T05:51:45.310Z,101184.81
2022-09-12T05:54:15.080Z,101188.28
2022-09-12T05:56:43.965Z,101195.63
2022-09-12T05:59:20.600Z,101196.84
2022-09-12T06:01:48.573Z,101196.72
2022-09-12T06:04:16.052Z,101189.59
2022-09-12T06:06:48.809Z,101185.53
2022-09-12T06:09:16.936Z,101184.38
2022-09-12T06:11:45.804Z,101186.78
2022-09-12T06:14:15.147Z,101187.22
2022-09-12T06:16:42.661Z,101184.19
2022-09-12T06:19:17.044Z,101187.84
2022-09-12T06:21:44.977Z,101177.59
2022-09-12T06:24:12.156Z,101182.47
2022-09-12T06:26:42.360Z,101173.94
2022-09-12T06:29:11.666Z,101183.00
2022-09-12T06:31:41.384Z,101170.13
2022-09-12T06:34:11.510Z,101181.25
2022-09-12T06:36:45.095Z,101178.59
2022-09-12T06:39:24.431Z,101174.81
2022-09-12T06:41:52.485Z,101168.16
2022-09-12T06:44:33.029Z,101163.88
2022-09-12T06:46:59.961Z,101164.22
2022-09-12T06:49:26.865Z,101158.94
2022-09-12T06:51:53.775Z,101156.28
2022-09-12T06:54:20.652Z,101157.28
2022-09-12T06:56:47.631Z,101160.44
2022-09-12T06:59:14.603Z,101152.13
2022-09-12T07:01:42.076Z,101158.09
2022-09-12T07:04:09.317Z,101161.66
2022-09-12T07:06:42.297Z,101155.19
2022-09-12T07:09:13.548Z,101162.72
2022-09-12T07:11:42.174Z,101166.50
2022-09-12T07:14:13.827Z,101165.16
2022-09-12T07:16:41.924Z,101158.75
2022-09-12T07:19:10.187Z,101165.50
2022-09-12T07:21:40.051Z,101155.31
2022-09-12T07:24:11.733Z,101156.19
2022-09-12T07:26:40.469Z,101158.94
2022-09-12T07:29:35.332Z,101158.03
2022-09-12T07:31:57.640Z,101154.44
2022-09-12T07:34:24.513Z,101160.00
2022-09-12T07:36:51.471Z,101158.25
2022-09-12T07:39:18.379Z,101157.47
2022-09-12T07:41:45.332Z,101160.94
2022-09-12T07:44:12.272Z,101158.97
2022-09-12T07:46:40.117Z,101153.69
2022-09-12T07:49:08.483Z,101152.81
2022-09-12T07:51:35.891Z,101157.69
2022-09-12T07:54:03.771Z,101151.88
2022-09-12T07:56:34.611Z,101154.44
2022-09-12T07:59:03.967Z,101156.84
2022-09-12T08:01:31.032Z,101162.53
2022-09-12T08:04:00.625Z,101158.44
2022-09-12T08:06:31.157Z,101162.06
2022-09-12T08:09:00.548Z,101158.66
2022-09-12T08:11:29.589Z,101157.16
2022-09-12T08:13:58.043Z,101163.50
2022-09-12T08:16:28.569Z,101159.22
2022-09-12T08:18:55.892Z,101158.91
2022-09-12T08:21:34.232Z,101161.25
2022-09-12T08:24:04.720Z,101162.97
2022-09-12T08:26:33.765Z,101169.97
2022-09-12T08:29:01.643Z,101171.34
2022-09-12T08:31:28.943Z,101170.13
2022-09-12T08:33:57.654Z,101160.19
2022-09-12T08:36:27.692Z,101159.69
2022-09-12T08:39:01.332Z,101167.19
2022-09-12T08:41:39.804Z,101158.97
2022-09-12T08:44:23.000Z,101164.84
2022-09-12T08:47:06.974Z,101165.34
2022-09-12T08:49:42.203Z,101165.00
2022-09-12T08:52:29.510Z,101161.59
2022-09-12T08:54:57.096Z,101159.72
2022-09-12T08:57:24.301Z,101152.91
2022-09-12T08:59:52.968Z,101155.13
2022-09-12T09:02:58.907Z,101153.06
2022-09-12T09:05:36.471Z,101146.44
2022-09-12T09:08:43.029Z,101151.75
2022-09-12T09:11:45.842Z,101139.28
2022-09-12T09:14:31.203Z,101141.84
2022-09-12T09:17:00.224Z,101143.03
2022-09-12T09:20:16.226Z,101142.19
2022-09-12T09:23:02.435Z,101134.97
2022-09-12T09:25:56.720Z,101123.31
2022-09-12T09:29:20.544Z,101127.38
2022-09-12T09:31:52.494Z,101123.47
2022-09-12T09:34:29.081Z,101129.94
2022-09-12T09:37:19.635Z,101128.19
2022-09-12T09:40:24.886Z,101120.78
2022-09-12T09:43:24.661Z,101130.91
2022-09-12T09:45:53.112Z,101136.22
2022-09-12T09:48:28.262Z,101118.06
2022-09-12T09:51:00.320Z,101127.81
2022-09-12T09:54:19.906Z,101129.38
2022-09-12T09:56:50.410Z,101121.31
2022-09-12T09:59:30.248Z,101123.94
2022-09-12T10:02:03.638Z,101124.31
2022-09-12T10:04:38.099Z,101123.97
2022-09-12T10:07:19.765Z,101118.00
2022-09-12T10:10:07.486Z,101116.94
2022-09-12T10:12:34.476Z,101106.66
2022-09-12T10:15:23.240Z,101102.34
2022-09-12T10:17:51.322Z,101110.00
2022-09-12T10:20:46.273Z,101103.78
2022-09-12T10:23:41.020Z,101107.69
2022-09-12T10:26:15.220Z,101103.63
2022-09-12T10:28:55.049Z,101106.34
2022-09-12T10:31:39.012Z,101098.13
2022-09-12T10:34:06.088Z,101107.69
2022-09-12T10:36:40.776Z,101103.03
2022-09-12T10:39:18.674Z,101100.25
2022-09-12T10:41:46.168Z,101097.59
2022-09-12T10:44:26.235Z,101099.47
2022-09-12T10:46:54.399Z,101098.59
2022-09-12T10:49:38.065Z,101095.88
2022-09-12T10:52:25.049Z,101092.94
2022-09-12T10:54:52.475Z,101077.84
2022-09-12T10:57:49.047Z,101088.00
2022-09-12T11:00:20.083Z,101087.81
2022-09-12T11:03:14.648Z,101086.47
2022-09-12T11:05:59.910Z,101075.72
2022-09-12T11:08:53.946Z,101074.84
2022-09-12T11:11:39.204Z,101073.69
2022-09-12T11:14:27.616Z,101062.06
2022-09-12T11:17:15.796Z,101070.22
2022-09-12T11:19:57.737Z,101060.41
2022-09-12T11:23:14.898Z,101057.91
2022-09-12T11:25:57.288Z,101049.84
2022-09-12T11:28:37.237Z,101052.19
2022-09-12T11:31:25.134Z,101056.47
2022-09-12T11:33:56.550Z,101052.19
2022-09-12T11:37:07.435Z,101045.03
2022-09-12T11:39:41.023Z,101041.19
2022-09-12T11:42:18.131Z,101036.41
2022-09-12T11:45:05.492Z,101038.94
2022-09-12T11:47:35.333Z,101028.13
2022-09-12T11:50:23.469Z,101030.28
2022-09-12T11:52:53.217Z,101023.78
2022-09-12T11:55:26.075Z,101034.53
2022-09-12T11:57:58.480Z,101031.00
2022-09-12T12:00:48.172Z,101026.19
2022-09-12T12:03:28.422Z,101021.53
2022-09-12T12:06:12.574Z,101023.06
2022-09-12T12:08:43.349Z,101033.72
2022-09-12T12:11:13.312Z,101025.44
2022-09-12T12:13:51.451Z,101025.03
2022-09-12T12:16:28.309Z,101009.97
2022-09-12T12:19:09.991Z,101008.88
2022-09-12T12:21:43.958Z,101012.91
2022-09-12T12:24:17.992Z,101011.63
2022-09-12T12:26:58.156Z,100997.38
2022-09-12T12:29:46.189Z,101003.34
2022-09-12T12:32:16.430Z,101011.22
2022-09-12T12:34:45.658Z,101002.91
2022-09-12T12:37:21.592Z,101004.63
2022-09-12T12:40:01.239Z,100993.97
2022-09-12T12:42:34.301Z,100989.44
2022-09-12T12:45:29.875Z,100989.38
2022-09-12T12:48:08.326Z,100988.53
2022-09-12T12:50:35.741Z,100973.84
2022-09-12T12:53:27.842Z,100974.28
2022-09-12T12:55:56.570Z,100977.59
2022-09-12T12:58:37.556Z,100965.31
2022-09-12T13:01:19.381Z,100961.88
2022-09-12T13:04:03.696Z,100953.72
2022-09-12T13:06:40.099Z,100954.63
2022-09-12T13:09:19.876Z,100956.06
2022-09-12T13:11:47.136Z,100945.41
2022-09-12T13:14:55.893Z,100935.09
2022-09-12T13:17:28.735Z,100937.59
2022-09-12T13:20:27.859Z,100933.97
2022-09-12T13:22:56.116Z,100925.78
2022-09-12T13:25:35.660Z,100928.28
2022-09-12T13:28:10.648Z,100919.72
2022-09-12T13:30:42.629Z,100920.75
2022-09-12T13:33:28.501Z,100908.59
2022-09-12T13:36:15.373Z,100910.19
2022-09-12T13:38:51.032Z,100898.91
2022-09-12T13:41:39.557Z,100897.16
2022-09-12T13:44:13.224Z,100900.00
2022-09-12T13:46:40.713Z,100896.34
2022-09-12T13:49:23.902Z,100898.44
2022-09-12T13:52:05.923Z,100891.28
2022-09-12T13:54:37.871Z,100892.16
2022-09-12T13:57:05.872Z,100890.25
2022-09-12T13:59:40.958Z,100888.56
2022-09-12T14:02:22.846Z,100886.44
2022-09-12T14:05:08.976Z,100887.97
2022-09-12T14:08:04.627Z,100884.09
2022-09-12T14:10:40.712Z,100885.56
2022-09-12T14:13:21.781Z,100878.31
2022-09-12T14:15:52.927Z,100868.13
2022-09-12T14:18:29.749Z,100863.81
2022-09-12T14:21:00.791Z,100867.59
2022-09-12T14:23:33.202Z,100869.91
2022-09-12T14:26:08.205Z,100859.34
2022-09-12T14:28:36.173Z,100857.66
2022-09-12T14:31:07.462Z,100856.19
2022-09-12T14:33:48.665Z,100859.19
2022-09-12T14:36:27.625Z,100842.41
2022-09-12T14:38:59.847Z,100842.41
2022-09-12T14:41:32.652Z,100836.22
2022-09-12T14:44:05.028Z,100837.06
2022-09-12T14:46:41.176Z,100828.94
2022-09-12T14:49:15.848Z,100818.47
2022-09-12T14:51:51.810Z,100821.56
2022-09-12T14:54:28.523Z,100824.53
2022-09-12T14:57:39.419Z,100816.88
2022-09-12T15:00:12.251Z,100824.16
2022-09-12T15:02:41.587Z,100823.31
2022-09-12T15:05:08.537Z,100811.91
2022-09-12T15:07:43.612Z,100813.63
2022-09-12T15:10:34.694Z,100811.94
2022-09-12T15:13:14.291Z,100808.75
2022-09-12T15:15:45.782Z,100806.25
2022-09-12T15:18:13.821Z,100804.81
2022-09-12T15:20:43.905Z,100805.97
2022-09-12T15:23:19.365Z,100810.03
2022-09-12T15:25:47.005Z,100802.94
2022-09-12T15:28:20.043Z,100797.00
2022-09-12T15:30:50.590Z,100794.69
2022-09-12T15:33:19.643Z,100798.81
2022-09-12T15:35:46.583Z,100798.00
2022-09-12T15:38:13.776Z,100793.41
2022-09-12T15:40:41.061Z,100794.72
2022-09-12T15:43:08.044Z,100790.09
2022-09-12T15:45:35.672Z,100787.75
2022-09-12T15:48:03.361Z,100791.81
2022-09-12T15:50:31.602Z,100789.91
2022-09-12T15:52:58.974Z,100793.50
2022-09-12T15:55:30.122Z,100793.69
2022-09-12T15:57:57.004Z,100791.16
2022-09-12T16:00:24.392Z,100779.28
2022-09-12T16:02:53.610Z,100794.97
2022-09-12T16:05:25.232Z,100788.63
2022-09-12T16:07:55.064Z,100790.31
2022-09-12T16:10:26.944Z,100785.63
2022-09-12T16:12:54.024Z,100785.63
2022-09-12T16:15:24.522Z,100774.41
2022-09-12T16:17:51.763Z,100777.38
2022-09-12T16:20:19.751Z,100778.44
2022-09-12T16:22:46.965Z,100764.44
2022-09-12T16:25:14.382Z,100768.03
2022-09-12T16:27:41.758Z,100752.53
2022-09-12T16:30:09.626Z,100773.97
2022-09-12T16:32:37.019Z,100759.09
2022-09-12T16:35:05.087Z,100762.88
2022-09-12T16:37:34.573Z,100762.28
2022-09-12T16:40:03.404Z,100753.38
2022-09-12T16:42:31.760Z,100758.44
2022-09-12T16:44:58.878Z,100756.56
2022-09-12T16:47:26.257Z,100746.56
2022-09-12T16:49:53.362Z,100734.44
2022-09-12T16:52:20.763Z,100730.53
2022-09-12T16:54:48.041Z,100736.66
2022-09-12T16:57:15.240Z,100733.22
2022-09-12T16:59:42.577Z,100713.66
2022-09-12T17:02:14.034Z,100716.59
2022-09-12T17:04:42.089Z,100728.66
2022-09-12T17:07:09.151Z,100723.16
2022-09-12T17:09:36.477Z,100729.13
2022-09-12T17:12:03.713Z,100723.16
2022-09-12T17:14:30.704Z,100716.59
2022-09-12T17:16:57.946Z,100722.50
2022-09-12T17:19:29.626Z,100727.09
2022-09-12T17:21:57.875Z,100727.22
2022-09-12T17:24:25.369Z,100726.31
2022-09-12T17:26:53.508Z,100717.84
2022-09-12T17:29:20.653Z,100715.66
2022-09-12T17:31:50.455Z,100713.91
2022-09-12T17:34:17.761Z,100710.91
2022-09-12T17:36:45.867Z,100716.41
2022-09-12T17:39:14.297Z,100718.94
2022-09-12T17:41:46.137Z,100704.66
2022-09-12T17:44:15.092Z,100701.97
2022-09-12T17:46:43.501Z,100699.59
2022-09-12T17:49:16.849Z,100710.13
2022-09-12T17:51:44.979Z,100712.16
2022-09-12T17:54:17.559Z,100715.25
2022-09-12T17:56:48.967Z,100712.19
2022-09-12T17:59:20.159Z,100707.59
2022-09-12T18:02:06.287Z,100710.81
2022-09-12T18:04:34.360Z,100704.13
2022-09-12T18:07:01.498Z,100708.22
2022-09-12T18:09:28.795Z,100707.31
2022-09-12T18:11:55.809Z,100704.00
2022-09-12T18:14:23.709Z,100702.41
2022-09-12T18:16:50.888Z,100702.25
2022-09-12T18:19:18.463Z,100696.84
2022-09-12T18:21:45.679Z,100698.47
2022-09-12T18:24:12.796Z,100693.28
2022-09-12T18:26:40.115Z,100686.84
2022-09-12T18:29:07.727Z,100691.09
2022-09-12T18:31:34.667Z,100690.97
2022-09-12T18:34:02.548Z,100688.16
2022-09-12T18:36:30.645Z,100686.19
2022-09-12T18:38:59.120Z,100692.03
2022-09-12T18:41:28.752Z,100687.31
2022-09-12T18:43:57.586Z,100693.34
2022-09-12T18:46:25.686Z,100672.31
2022-09-12T18:48:55.453Z,100675.59
2022-09-12T18:51:31.627Z,100674.28
2022-09-12T18:54:08.720Z,100672.47
2022-09-12T18:56:38.298Z,100679.16
2022-09-12T18:59:07.576Z,100676.31
2022-09-12T19:01:37.280Z,100678.28
2022-09-12T19:04:07.573Z,100669.81
2022-09-12T19:06:41.450Z,100672.56
2022-09-12T19:09:10.102Z,100677.75
2022-09-12T19:11:39.879Z,100673.38
2022-09-12T19:14:07.730Z,100675.44
2022-09-12T19:16:35.083Z,100670.34
2022-09-12T19:19:02.968Z,100661.09
2022-09-12T19:21:31.696Z,100661.44
2022-09-12T19:24:09.950Z,100660.09
2022-09-12T19:26:38.917Z,100652.59
2022-09-12T19:29:06.338Z,100656.06
2022-09-12T19:31:33.393Z,100668.88
2022-09-12T19:34:07.825Z,100662.75
2022-09-12T19:36:50.681Z,100651.69
2022-09-12T19:39:19.670Z,100648.66
2022-09-12T19:41:47.424Z,100644.91
2022-09-12T19:44:14.526Z,100646.66
2022-09-12T19:46:41.964Z,100643.28
2022-09-12T19:49:11.767Z,100642.13
2022-09-12T19:51:38.937Z,100645.38
2022-09-12T19:54:06.201Z,100639.78
2022-09-12T19:56:33.090Z,100642.50
2022-09-12T19:59:00.159Z,100635.72
2022-09-12T20:01:28.605Z,100642.69
2022-09-12T20:03:57.653Z,100637.94
2022-09-12T20:06:25.936Z,100628.09
2022-09-12T20:08:53.085Z,100625.19
2022-09-12T20:11:23.363Z,100621.78
2022-09-12T20:13:50.595Z,100613.59
2022-09-12T20:16:22.813Z,100610.19
2022-09-12T20:18:55.890Z,100601.88
2022-09-12T20:21:30.953Z,100612.94
2022-09-12T20:24:11.885Z,100595.56
2022-09-12T20:26:39.838Z,100600.69
2022-09-12T20:29:07.603Z,100589.03
2022-09-12T20:31:36.973Z,100596.38
2022-09-12T20:34:05.227Z,100584.78
2022-09-12T20:36:32.486Z,100588.06
2022-09-12T20:39:01.333Z,100599.28
2022-09-12T20:41:32.234Z,100584.63
2022-09-12T20:43:59.445Z,100584.34
2022-09-12T20:46:28.388Z,100587.41
2022-09-12T20:48:55.774Z,100589.44
2022-09-12T20:51:24.485Z,100573.63
2022-09-12T20:53:59.599Z,100580.44
2022-09-12T20:56:28.337Z,100578.59
2022-09-12T20:58:56.391Z,100568.56
2022-09-12T21:01:24.838Z,100581.22
2022-09-12T21:03:52.312Z,100571.00
2022-09-12T21:06:20.212Z,100565.56
2022-09-12T21:08:48.656Z,100561.44
2022-09-12T21:11:16.552Z,100552.56
2022-09-12T21:13:43.483Z,100546.81
2022-09-12T21:16:17.689Z,100547.13
2022-09-12T21:18:45.210Z,100549.00
2022-09-12T21:21:14.331Z,100543.06
2022-09-12T21:23:42.171Z,100539.97
2022-09-12T21:26:09.214Z,100532.81
2022-09-12T21:28:36.561Z,100540.16
2022-09-12T21:31:03.751Z,100535.91
2022-09-12T21:33:31.021Z,100526.53
2022-09-12T21:36:03.641Z,100525.84
2022-09-12T21:38:30.954Z,100529.06
2022-09-12T21:41:13.145Z,100513.22
2022-09-12T21:43:40.439Z,100504.22
2022-09-12T21:46:08.362Z,100514.94
2022-09-12T21:48:35.929Z,100506.06
2022-09-12T21:51:04.016Z,100514.09
2022-09-12T21:53:31.861Z,100516.47
2022-09-12T21:56:07.445Z,100518.69
2022-09-12T21:58:35.584Z,100512.75
2022-09-12T22:01:03.510Z,100523.16
2022-09-12T22:03:30.870Z,100513.78
2022-09-12T22:06:03.967Z,100516.69
2022-09-12T22:08:33.611Z,100510.41
2022-09-12T22:11:03.719Z,100517.72
2022-09-12T22:13:32.032Z,100513.63
2022-09-12T22:16:00.399Z,100502.03
2022-09-12T22:18:27.413Z,100497.63
2022-09-12T22:21:07.474Z,100499.50
2022-09-12T22:23:53.589Z,100497.94
2022-09-12T22:26:20.603Z,100503.75
2022-09-12T22:28:47.686Z,100502.69
2022-09-12T22:31:15.429Z,100495.03
2022-09-12T22:33:43.133Z,100511.88
2022-09-12T22:36:10.527Z,100504.53
2022-09-12T22:38:37.695Z,100496.19
2022-09-12T22:41:07.487Z,100487.69
2022-09-12T22:43:35.294Z,100486.84
2022-09-12T22:46:06.477Z,100476.09
2022-09-12T22:48:33.993Z,100464.38
2022-09-12T22:51:01.149Z,100467.94
2022-09-12T22:53:28.666Z,100467.41
2022-09-12T22:55:55.771Z,100473.72
2022-09-12T22:58:22.807Z,100486.16
2022-09-12T23:00:50.833Z,100470.50
2022-09-12T23:03:19.127Z,100466.41
2022-09-12T23:05:49.872Z,100467.28
2022-09-12T23:08:19.357Z,100465.72
2022-09-12T23:10:46.753Z,100469.44
2022-09-12T23:13:14.210Z,100459.94
2022-09-12T23:15:41.362Z,100448.72
2022-09-12T23:18:08.493Z,100455.69
2022-09-12T23:20:35.688Z,100452.97
2022-09-12T23:23:03.006Z,100462.81
2022-09-12T23:25:30.897Z,100446.63
2022-09-12T23:27:58.346Z,100454.47
2022-09-12T23:30:25.301Z,100447.66
2022-09-12T23:32:52.295Z,100451.56
2022-09-12T23:35:19.679Z,100444.09
2022-09-12T23:37:47.456Z,100448.34
2022-09-12T23:40:14.656Z,100447.16
2022-09-12T23:42:41.761Z,100461.81
2022-09-12T23:45:10.282Z,100456.91
2022-09-12T23:47:37.386Z,100463.22
2022-09-12T23:50:04.855Z,100467.81
2022-09-12T23:52:31.852Z,100465.25
2022-09-12T23:54:58.725Z,100484.50
2022-09-12T23:57:25.696Z,100465.94
2022-09-12T23:59:52.643Z,100458.44
